Погода Таймоновона неделю

Могилёвская область, Белоруссия

22 - 28 мая
  • 22мая
    Сегодня
    +13°
    +24°
    Небольшая облачность
    ВремяПогодаТемператураВлажностьДавлениеВетер, м/сВероятность осадков
    00:00Облачно с прояснениями+16°C77 %749 мм3.0 м/с6 %
    03:00Облачно с прояснениями+14°C87 %750 мм1.7 м/с10 %
    06:00Пасмурно, сплошная облачность+13°C88 %750 мм1.4 м/с18 %
    09:00Практически безоблачно+19°C71 %750 мм1.5 м/с4 %
    12:00Практически безоблачно+24°C56 %751 мм1.8 м/с8 %
    15:00Небольшая облачность+23°C62 %750 мм0.8 м/с23 %
    18:00Облачно с прояснениями+20°C69 %750 мм2.7 м/с40 %
    21:00Ясно и безоблачно+17°C89 %750 мм1.9 м/с4 %
  • 23мая
    Четверг
    +12°
    +24°
    Небольшая облачность и лёгкий дождик
    ВремяПогодаТемператураВлажностьДавлениеВетер, м/сВероятность осадков
    00:00Небольшая облачность+15°C94 %750 мм1.9 м/с2 %
    03:00Ясно и безоблачно+14°C94 %751 мм3.1 м/с2 %
    06:00Ясно и безоблачно+14°C94 %751 мм3.7 м/с1 %
    09:00Ясно и безоблачно+19°C79 %752 мм4.4 м/с2 %
    12:00Практически безоблачно+23°C58 %753 мм5.3 м/с9 %
    15:00Небольшая облачность и лёгкий дождик+23°C54 %753 мм5.9 м/с12 %
    18:00Небольшая облачность+21°C63 %753 мм5.6 м/с31 %
    21:00Ясно и безоблачно+19°C65 %754 мм4.0 м/с5 %
  • 24мая
    Пятница
    +11°
    +23°
    Ясно и безоблачно
    ВремяПогодаТемператураВлажностьДавлениеВетер, м/сВероятность осадков
    00:00Ясно и безоблачно+17°C67 %754 мм5.3 м/с2 %
    03:00Ясно и безоблачно+14°C67 %755 мм5.1 м/с1 %
    06:00Ясно и безоблачно+12°C63 %756 мм5.1 м/с1 %
    09:00Ясно и безоблачно+17°C53 %757 мм5.1 м/с1 %
    12:00Ясно и безоблачно+21°C48 %757 мм4.9 м/с1 %
    15:00Ясно и безоблачно+23°C44 %757 мм5.1 м/с1 %
    18:00Ясно и безоблачно+22°C45 %756 мм5.2 м/с6 %
    21:00Ясно и безоблачно+18°C58 %756 мм3.8 м/с2 %
  • 25мая
    Суббота
    +10°
    +24°
    Ясно и безоблачно
    ВремяПогодаТемператураВлажностьДавлениеВетер, м/сВероятность осадков
    00:00Ясно и безоблачно+15°C67 %756 мм4.0 м/с2 %
    03:00Ясно и безоблачно+13°C70 %756 мм4.1 м/с2 %
    06:00Ясно и безоблачно+11°C62 %756 мм4.2 м/с2 %
    09:00Ясно и безоблачно+17°C47 %757 мм4.2 м/с2 %
    12:00Ясно и безоблачно+22°C39 %757 мм4.6 м/с3 %
    15:00Ясно и безоблачно+23°C37 %756 мм4.7 м/с3 %
    18:00Ясно и безоблачно+23°C37 %755 мм4.2 м/с7 %
    21:00Ясно и безоблачно+17°C56 %755 мм2.2 м/с2 %
  • 26мая
    Воскресенье
    +10°
    +25°
    Ясно и безоблачно
    ВремяПогодаТемператураВлажностьДавлениеВетер, м/сВероятность осадков
    00:00Ясно и безоблачно+13°C69 %755 мм2.5 м/с2 %
    03:00Ясно и безоблачно+11°C77 %755 мм2.1 м/с2 %
    06:00Ясно и безоблачно+11°C78 %755 мм2.1 м/с2 %
    09:00Облачно с прояснениями+18°C58 %755 мм1.8 м/с2 %
    12:00Облачно с прояснениями+23°C34 %755 мм2.4 м/с2 %
    15:00Ясно и безоблачно+24°C32 %755 мм2.0 м/с2 %
    18:00Ясно и безоблачно+24°C34 %754 мм2.4 м/с4 %
    21:00Практически безоблачно+18°C63 %754 мм2.8 м/с2 %
Мы используем cookies
Соглашаюсь